Terminal Aerodrome Forecast
Issued by NWS Shreveport, LA

Home | Current Version | Previous Version | Text Only | Print | Product List | Glossary On
Versions: 1 2 3 4 5 6 7 8 9 10 11 12
000
FTUS44 KSHV 211740
TAFSHV
TAF
KSHV 211740Z 2118/2218 13012KT P6SM SCT070 BKN150
     FM212300 14011KT P6SM VCTS FEW015 BKN030CB
     FM220000 14008KT 5SM TSRA BR SCT010 OVC020CB
     FM221100 27007KT P6SM VCTS OVC010CB
     FM221500 30013G18KT P6SM OVC015=

USA.gov is the U.S. government's official web portal to all federal, state and local government web resources and services.